sensor_id;sensor_type;location;lat;lon;timestamp;P1;durP1;ratioP1;P2;durP2;ratioP2
5995;SDS011;3026;53.612;7.278;2023-04-07T00:01:44;22.07;;;15.17;;
5995;SDS011;3026;53.612;7.278;2023-04-07T00:04:11;23.17;;;16.83;;
5995;SDS011;3026;53.612;7.278;2023-04-07T00:06:38;22.43;;;15.67;;
5995;SDS011;3026;53.612;7.278;2023-04-07T00:09:07;21.83;;;14.67;;
5995;SDS011;3026;53.612;7.278;2023-04-07T00:11:36;22.97;;;16.10;;
5995;SDS011;3026;53.612;7.278;2023-04-07T00:14:02;27.30;;;16.23;;
5995;SDS011;3026;53.612;7.278;2023-04-07T00:16:29;21.90;;;16.20;;
5995;SDS011;3026;53.612;7.278;2023-04-07T00:18:56;22.03;;;15.40;;
5995;SDS011;3026;53.612;7.278;2023-04-07T00:21:23;21.93;;;15.63;;
5995;SDS011;3026;53.612;7.278;2023-04-07T00:23:51;20.77;;;15.90;;
5995;SDS011;3026;53.612;7.278;2023-04-07T00:26:18;19.30;;;14.80;;
5995;SDS011;3026;53.612;7.278;2023-04-07T00:28:46;23.17;;;16.50;;
5995;SDS011;3026;53.612;7.278;2023-04-07T00:31:13;20.87;;;15.63;;
5995;SDS011;3026;53.612;7.278;2023-04-07T00:33:40;22.47;;;15.23;;
5995;SDS011;3026;53.612;7.278;2023-04-07T00:36:07;22.60;;;15.77;;
5995;SDS011;3026;53.612;7.278;2023-04-07T00:38:33;20.00;;;14.10;;
5995;SDS011;3026;53.612;7.278;2023-04-07T00:41:00;19.90;;;14.83;;
5995;SDS011;3026;53.612;7.278;2023-04-07T00:43:27;21.30;;;14.60;;
5995;SDS011;3026;53.612;7.278;2023-04-07T00:45:55;19.07;;;14.83;;
5995;SDS011;3026;53.612;7.278;2023-04-07T00:48:22;19.43;;;14.03;;
5995;SDS011;3026;53.612;7.278;2023-04-07T00:50:49;17.90;;;13.13;;
5995;SDS011;3026;53.612;7.278;2023-04-07T00:53:16;14.63;;;11.97;;
5995;SDS011;3026;53.612;7.278;2023-04-07T00:55:43;16.93;;;12.40;;
5995;SDS011;3026;53.612;7.278;2023-04-07T00:58:10;16.87;;;12.50;;
5995;SDS011;3026;53.612;7.278;2023-04-07T01:00:40;17.67;;;13.57;;
5995;SDS011;3026;53.612;7.278;2023-04-07T01:03:11;16.70;;;12.67;;
5995;SDS011;3026;53.612;7.278;2023-04-07T01:05:45;18.97;;;13.53;;
5995;SDS011;3026;53.612;7.278;2023-04-07T01:08:20;16.40;;;12.53;;
5995;SDS011;3026;53.612;7.278;2023-04-07T01:10:51;14.87;;;11.57;;
5995;SDS011;3026;53.612;7.278;2023-04-07T01:13:22;17.67;;;13.50;;
5995;SDS011;3026;53.612;7.278;2023-04-07T01:15:54;18.70;;;13.37;;
5995;SDS011;3026;53.612;7.278;2023-04-07T01:18:25;18.07;;;12.77;;
5995;SDS011;3026;53.612;7.278;2023-04-07T01:20:55;19.13;;;12.93;;
5995;SDS011;3026;53.612;7.278;2023-04-07T01:23:30;17.00;;;11.73;;
5995;SDS011;3026;53.612;7.278;2023-04-07T01:26:14;17.03;;;11.90;;
5995;SDS011;3026;53.612;7.278;2023-04-07T01:28:52;17.30;;;12.37;;
5995;SDS011;3026;53.612;7.278;2023-04-07T01:31:28;16.50;;;12.40;;
5995;SDS011;3026;53.612;7.278;2023-04-07T01:33:56;17.23;;;13.03;;
5995;SDS011;3026;53.612;7.278;2023-04-07T01:36:26;16.30;;;11.80;;
5995;SDS011;3026;53.612;7.278;2023-04-07T01:38:54;16.10;;;12.17;;
5995;SDS011;3026;53.612;7.278;2023-04-07T01:41:23;16.90;;;12.33;;
5995;SDS011;3026;53.612;7.278;2023-04-07T01:43:51;16.33;;;13.17;;
5995;SDS011;3026;53.612;7.278;2023-04-07T01:46:19;17.80;;;12.50;;
5995;SDS011;3026;53.612;7.278;2023-04-07T01:48:47;19.93;;;12.97;;
5995;SDS011;3026;53.612;7.278;2023-04-07T01:51:15;17.13;;;12.37;;
5995;SDS011;3026;53.612;7.278;2023-04-07T01:53:43;16.30;;;12.33;;
5995;SDS011;3026;53.612;7.278;2023-04-07T01:56:11;17.53;;;12.77;;
5995;SDS011;3026;53.612;7.278;2023-04-07T01:58:37;20.13;;;13.23;;
5995;SDS011;3026;53.612;7.278;2023-04-07T02:01:04;17.70;;;12.30;;
5995;SDS011;3026;53.612;7.278;2023-04-07T02:03:33;16.40;;;12.43;;
5995;SDS011;3026;53.612;7.278;2023-04-07T02:06:07;22.10;;;13.33;;
5995;SDS011;3026;53.612;7.278;2023-04-07T02:08:38;16.07;;;12.73;;
5995;SDS011;3026;53.612;7.278;2023-04-07T02:11:12;17.10;;;13.00;;
5995;SDS011;3026;53.612;7.278;2023-04-07T02:13:42;16.00;;;11.87;;
5995;SDS011;3026;53.612;7.278;2023-04-07T02:16:10;18.60;;;13.27;;
5995;SDS011;3026;53.612;7.278;2023-04-07T02:18:38;17.33;;;11.60;;
5995;SDS011;3026;53.612;7.278;2023-04-07T02:21:07;16.37;;;11.67;;
5995;SDS011;3026;53.612;7.278;2023-04-07T02:23:35;18.23;;;12.77;;
5995;SDS011;3026;53.612;7.278;2023-04-07T02:26:02;15.60;;;11.97;;
5995;SDS011;3026;53.612;7.278;2023-04-07T02:28:29;15.47;;;11.80;;
5995;SDS011;3026;53.612;7.278;2023-04-07T02:30:56;15.07;;;11.37;;
5995;SDS011;3026;53.612;7.278;2023-04-07T02:33:23;14.53;;;12.10;;
5995;SDS011;3026;53.612;7.278;2023-04-07T02:35:49;17.47;;;11.77;;
5995;SDS011;3026;53.612;7.278;2023-04-07T02:38:17;14.47;;;10.80;;
5995;SDS011;3026;53.612;7.278;2023-04-07T02:40:44;17.60;;;11.40;;
5995;SDS011;3026;53.612;7.278;2023-04-07T02:43:11;14.30;;;10.87;;
5995;SDS011;3026;53.612;7.278;2023-04-07T02:45:38;14.33;;;11.17;;
5995;SDS011;3026;53.612;7.278;2023-04-07T02:48:05;14.40;;;10.40;;
5995;SDS011;3026;53.612;7.278;2023-04-07T02:50:31;14.37;;;10.70;;
5995;SDS011;3026;53.612;7.278;2023-04-07T02:52:58;13.97;;;10.93;;
5995;SDS011;3026;53.612;7.278;2023-04-07T02:55:26;14.40;;;10.37;;
5995;SDS011;3026;53.612;7.278;2023-04-07T02:57:53;14.20;;;10.70;;
5995;SDS011;3026;53.612;7.278;2023-04-07T03:00:20;17.77;;;11.40;;
5995;SDS011;3026;53.612;7.278;2023-04-07T03:02:47;14.27;;;10.43;;
5995;SDS011;3026;53.612;7.278;2023-04-07T03:05:13;17.77;;;12.20;;
5995;SDS011;3026;53.612;7.278;2023-04-07T03:07:40;12.93;;;10.07;;
5995;SDS011;3026;53.612;7.278;2023-04-07T03:10:07;15.47;;;9.73;;
5995;SDS011;3026;53.612;7.278;2023-04-07T03:12:36;12.43;;;9.80;;
5995;SDS011;3026;53.612;7.278;2023-04-07T03:15:03;16.13;;;10.57;;
5995;SDS011;3026;53.612;7.278;2023-04-07T03:17:31;15.17;;;11.13;;
5995;SDS011;3026;53.612;7.278;2023-04-07T03:19:58;13.93;;;10.33;;
5995;SDS011;3026;53.612;7.278;2023-04-07T03:22:25;15.37;;;10.73;;
5995;SDS011;3026;53.612;7.278;2023-04-07T03:24:52;13.33;;;10.17;;
5995;SDS011;3026;53.612;7.278;2023-04-07T03:27:18;17.13;;;10.67;;
5995;SDS011;3026;53.612;7.278;2023-04-07T03:29:47;16.37;;;11.20;;
5995;SDS011;3026;53.612;7.278;2023-04-07T03:32:15;15.83;;;11.57;;
5995;SDS011;3026;53.612;7.278;2023-04-07T03:34:42;14.27;;;11.20;;
5995;SDS011;3026;53.612;7.278;2023-04-07T03:37:09;15.10;;;11.73;;
5995;SDS011;3026;53.612;7.278;2023-04-07T03:39:36;19.90;;;13.00;;
5995;SDS011;3026;53.612;7.278;2023-04-07T03:42:03;16.40;;;12.33;;
5995;SDS011;3026;53.612;7.278;2023-04-07T03:44:30;18.23;;;13.10;;
5995;SDS011;3026;53.612;7.278;2023-04-07T03:46:59;23.23;;;14.43;;
5995;SDS011;3026;53.612;7.278;2023-04-07T03:49:26;22.13;;;13.80;;
5995;SDS011;3026;53.612;7.278;2023-04-07T03:51:53;20.27;;;13.93;;
5995;SDS011;3026;53.612;7.278;2023-04-07T03:54:20;19.67;;;14.07;;
5995;SDS011;3026;53.612;7.278;2023-04-07T03:56:47;18.10;;;12.87;;
5995;SDS011;3026;53.612;7.278;2023-04-07T03:59:14;19.70;;;13.77;;
5995;SDS011;3026;53.612;7.278;2023-04-07T04:01:40;21.33;;;14.00;;
5995;SDS011;3026;53.612;7.278;2023-04-07T04:04:09;22.60;;;14.63;;
5995;SDS011;3026;53.612;7.278;2023-04-07T04:06:36;20.93;;;14.77;;
5995;SDS011;3026;53.612;7.278;2023-04-07T04:09:02;19.93;;;14.07;;
5995;SDS011;3026;53.612;7.278;2023-04-07T04:11:29;18.50;;;13.40;;
5995;SDS011;3026;53.612;7.278;2023-04-07T04:13:57;20.50;;;13.97;;
5995;SDS011;3026;53.612;7.278;2023-04-07T04:16:23;27.37;;;14.07;;
5995;SDS011;3026;53.612;7.278;2023-04-07T04:18:50;18.27;;;13.97;;
5995;SDS011;3026;53.612;7.278;2023-04-07T04:21:18;18.83;;;13.10;;
5995;SDS011;3026;53.612;7.278;2023-04-07T04:23:45;22.67;;;15.47;;
5995;SDS011;3026;53.612;7.278;2023-04-07T04:26:12;18.57;;;13.73;;
5995;SDS011;3026;53.612;7.278;2023-04-07T04:28:38;18.80;;;13.40;;
5995;SDS011;3026;53.612;7.278;2023-04-07T04:31:05;19.40;;;13.47;;
5995;SDS011;3026;53.612;7.278;2023-04-07T04:33:32;21.17;;;13.73;;
5995;SDS011;3026;53.612;7.278;2023-04-07T04:35:59;18.47;;;13.73;;
5995;SDS011;3026;53.612;7.278;2023-04-07T04:38:27;21.60;;;13.40;;
5995;SDS011;3026;53.612;7.278;2023-04-07T04:40:53;19.40;;;14.33;;
5995;SDS011;3026;53.612;7.278;2023-04-07T04:43:20;19.83;;;13.97;;
5995;SDS011;3026;53.612;7.278;2023-04-07T04:45:47;19.27;;;13.30;;
5995;SDS011;3026;53.612;7.278;2023-04-07T04:48:14;19.77;;;13.63;;
5995;SDS011;3026;53.612;7.278;2023-04-07T04:50:41;18.63;;;13.43;;
5995;SDS011;3026;53.612;7.278;2023-04-07T04:53:08;19.00;;;14.07;;
5995;SDS011;3026;53.612;7.278;2023-04-07T04:55:36;21.17;;;13.73;;
5995;SDS011;3026;53.612;7.278;2023-04-07T04:58:04;19.43;;;12.97;;
5995;SDS011;3026;53.612;7.278;2023-04-07T05:00:31;19.03;;;14.10;;
5995;SDS011;3026;53.612;7.278;2023-04-07T05:02:58;18.50;;;13.23;;
5995;SDS011;3026;53.612;7.278;2023-04-07T05:05:25;18.47;;;13.00;;
5995;SDS011;3026;53.612;7.278;2023-04-07T05:07:52;21.07;;;13.87;;
5995;SDS011;3026;53.612;7.278;2023-04-07T05:10:18;18.73;;;12.67;;
5995;SDS011;3026;53.612;7.278;2023-04-07T05:12:47;17.93;;;13.93;;
5995;SDS011;3026;53.612;7.278;2023-04-07T05:15:13;20.07;;;13.27;;
5995;SDS011;3026;53.612;7.278;2023-04-07T05:17:40;17.97;;;12.53;;
5995;SDS011;3026;53.612;7.278;2023-04-07T05:20:08;17.10;;;13.00;;
5995;SDS011;3026;53.612;7.278;2023-04-07T05:22:35;18.53;;;13.77;;
5995;SDS011;3026;53.612;7.278;2023-04-07T05:25:03;18.63;;;12.63;;
5995;SDS011;3026;53.612;7.278;2023-04-07T05:27:30;19.53;;;12.27;;
5995;SDS011;3026;53.612;7.278;2023-04-07T05:29:58;28.43;;;13.40;;
5995;SDS011;3026;53.612;7.278;2023-04-07T05:32:25;19.07;;;12.93;;
5995;SDS011;3026;53.612;7.278;2023-04-07T05:34:53;18.30;;;12.17;;
5995;SDS011;3026;53.612;7.278;2023-04-07T05:37:20;16.40;;;12.73;;
5995;SDS011;3026;53.612;7.278;2023-04-07T05:39:47;17.87;;;11.70;;
5995;SDS011;3026;53.612;7.278;2023-04-07T05:42:14;14.90;;;10.90;;
5995;SDS011;3026;53.612;7.278;2023-04-07T05:44:40;17.03;;;11.80;;
5995;SDS011;3026;53.612;7.278;2023-04-07T05:47:09;16.73;;;12.20;;
5995;SDS011;3026;53.612;7.278;2023-04-07T05:49:36;20.27;;;12.90;;
5995;SDS011;3026;53.612;7.278;2023-04-07T05:52:09;15.37;;;11.37;;
5995;SDS011;3026;53.612;7.278;2023-04-07T05:54:36;15.60;;;10.93;;
5995;SDS011;3026;53.612;7.278;2023-04-07T05:57:04;17.13;;;11.90;;
5995;SDS011;3026;53.612;7.278;2023-04-07T05:59:31;18.53;;;12.93;;
5995;SDS011;3026;53.612;7.278;2023-04-07T06:01:58;18.77;;;11.90;;
5995;SDS011;3026;53.612;7.278;2023-04-07T06:04:26;19.80;;;11.97;;
5995;SDS011;3026;53.612;7.278;2023-04-07T06:06:53;16.17;;;11.80;;
5995;SDS011;3026;53.612;7.278;2023-04-07T06:09:20;17.43;;;12.40;;
5995;SDS011;3026;53.612;7.278;2023-04-07T06:11:47;16.73;;;11.80;;
5995;SDS011;3026;53.612;7.278;2023-04-07T06:14:14;16.60;;;11.77;;
5995;SDS011;3026;53.612;7.278;2023-04-07T06:16:43;20.80;;;11.97;;
5995;SDS011;3026;53.612;7.278;2023-04-07T06:19:10;17.00;;;11.87;;
5995;SDS011;3026;53.612;7.278;2023-04-07T06:21:38;18.93;;;12.37;;
5995;SDS011;3026;53.612;7.278;2023-04-07T06:24:05;16.50;;;12.07;;
5995;SDS011;3026;53.612;7.278;2023-04-07T06:26:33;15.73;;;11.50;;
5995;SDS011;3026;53.612;7.278;2023-04-07T06:29:00;15.10;;;11.20;;
5995;SDS011;3026;53.612;7.278;2023-04-07T06:31:27;15.87;;;11.37;;
5995;SDS011;3026;53.612;7.278;2023-04-07T06:33:54;15.27;;;11.90;;
5995;SDS011;3026;53.612;7.278;2023-04-07T06:36:20;16.73;;;11.77;;
5995;SDS011;3026;53.612;7.278;2023-04-07T06:38:50;14.43;;;10.70;;
5995;SDS011;3026;53.612;7.278;2023-04-07T06:41:16;14.43;;;10.83;;
5995;SDS011;3026;53.612;7.278;2023-04-07T06:43:45;15.50;;;11.00;;
5995;SDS011;3026;53.612;7.278;2023-04-07T06:46:13;16.43;;;11.57;;
5995;SDS011;3026;53.612;7.278;2023-04-07T06:48:39;15.77;;;11.20;;
5995;SDS011;3026;53.612;7.278;2023-04-07T06:51:06;17.17;;;10.97;;
5995;SDS011;3026;53.612;7.278;2023-04-07T06:53:33;14.23;;;10.57;;
5995;SDS011;3026;53.612;7.278;2023-04-07T06:56:05;17.50;;;10.37;;
5995;SDS011;3026;53.612;7.278;2023-04-07T06:58:34;12.07;;;10.30;;
5995;SDS011;3026;53.612;7.278;2023-04-07T07:01:01;12.13;;;10.23;;
5995;SDS011;3026;53.612;7.278;2023-04-07T07:03:29;14.30;;;11.03;;
5995;SDS011;3026;53.612;7.278;2023-04-07T07:05:56;14.87;;;11.07;;
5995;SDS011;3026;53.612;7.278;2023-04-07T07:08:23;14.23;;;10.40;;
5995;SDS011;3026;53.612;7.278;2023-04-07T07:10:50;13.10;;;9.83;;
5995;SDS011;3026;53.612;7.278;2023-04-07T07:13:20;12.57;;;10.87;;
5995;SDS011;3026;53.612;7.278;2023-04-07T07:15:48;15.07;;;10.20;;
5995;SDS011;3026;53.612;7.278;2023-04-07T07:18:15;16.90;;;11.03;;
5995;SDS011;3026;53.612;7.278;2023-04-07T07:20:43;14.00;;;10.60;;
5995;SDS011;3026;53.612;7.278;2023-04-07T07:23:10;16.63;;;11.00;;
5995;SDS011;3026;53.612;7.278;2023-04-07T07:25:37;14.30;;;9.70;;
5995;SDS011;3026;53.612;7.278;2023-04-07T07:28:03;14.40;;;10.27;;
5995;SDS011;3026;53.612;7.278;2023-04-07T07:30:32;12.47;;;9.03;;
5995;SDS011;3026;53.612;7.278;2023-04-07T07:32:59;11.30;;;9.70;;
5995;SDS011;3026;53.612;7.278;2023-04-07T07:35:25;12.50;;;9.50;;
5995;SDS011;3026;53.612;7.278;2023-04-07T07:37:52;11.83;;;9.43;;
5995;SDS011;3026;53.612;7.278;2023-04-07T07:40:19;14.10;;;9.87;;
5995;SDS011;3026;53.612;7.278;2023-04-07T07:42:46;11.40;;;9.13;;
5995;SDS011;3026;53.612;7.278;2023-04-07T07:45:13;11.73;;;9.03;;
5995;SDS011;3026;53.612;7.278;2023-04-07T07:47:43;10.80;;;9.27;;
5995;SDS011;3026;53.612;7.278;2023-04-07T07:50:09;11.30;;;9.40;;
5995;SDS011;3026;53.612;7.278;2023-04-07T07:52:36;11.03;;;8.60;;
5995;SDS011;3026;53.612;7.278;2023-04-07T07:55:03;12.80;;;10.03;;
5995;SDS011;3026;53.612;7.278;2023-04-07T07:57:30;13.00;;;9.70;;
5995;SDS011;3026;53.612;7.278;2023-04-07T07:59:57;12.60;;;8.93;;
5995;SDS011;3026;53.612;7.278;2023-04-07T08:02:24;12.77;;;9.20;;
5995;SDS011;3026;53.612;7.278;2023-04-07T08:04:57;12.00;;;9.87;;
5995;SDS011;3026;53.612;7.278;2023-04-07T08:07:24;12.90;;;9.93;;
5995;SDS011;3026;53.612;7.278;2023-04-07T08:09:51;11.13;;;9.53;;
5995;SDS011;3026;53.612;7.278;2023-04-07T08:12:18;13.27;;;9.57;;
5995;SDS011;3026;53.612;7.278;2023-04-07T08:14:45;12.10;;;9.30;;
5995;SDS011;3026;53.612;7.278;2023-04-07T08:17:11;13.77;;;10.87;;
5995;SDS011;3026;53.612;7.278;2023-04-07T08:19:38;13.27;;;9.70;;
5995;SDS011;3026;53.612;7.278;2023-04-07T08:22:06;12.80;;;10.60;;
5995;SDS011;3026;53.612;7.278;2023-04-07T08:24:33;13.83;;;10.17;;
5995;SDS011;3026;53.612;7.278;2023-04-07T08:27:00;10.70;;;8.87;;
5995;SDS011;3026;53.612;7.278;2023-04-07T08:29:27;9.97;;;8.97;;
5995;SDS011;3026;53.612;7.278;2023-04-07T08:31:54;14.73;;;9.40;;
5995;SDS011;3026;53.612;7.278;2023-04-07T08:34:21;10.80;;;8.67;;
5995;SDS011;3026;53.612;7.278;2023-04-07T08:36:47;10.67;;;9.57;;
5995;SDS011;3026;53.612;7.278;2023-04-07T08:39:16;10.53;;;8.80;;
5995;SDS011;3026;53.612;7.278;2023-04-07T08:41:43;10.60;;;9.40;;
5995;SDS011;3026;53.612;7.278;2023-04-07T08:44:12;9.23;;;8.17;;
5995;SDS011;3026;53.612;7.278;2023-04-07T08:46:41;11.43;;;8.60;;
5995;SDS011;3026;53.612;7.278;2023-04-07T08:49:09;11.27;;;8.40;;
5995;SDS011;3026;53.612;7.278;2023-04-07T08:51:41;10.37;;;8.13;;
5995;SDS011;3026;53.612;7.278;2023-04-07T08:54:11;9.30;;;7.70;;
5995;SDS011;3026;53.612;7.278;2023-04-07T08:56:41;8.53;;;7.70;;
5995;SDS011;3026;53.612;7.278;2023-04-07T08:59:09;10.07;;;7.87;;
5995;SDS011;3026;53.612;7.278;2023-04-07T09:01:37;9.17;;;7.13;;
5995;SDS011;3026;53.612;7.278;2023-04-07T09:04:05;9.43;;;7.40;;
5995;SDS011;3026;53.612;7.278;2023-04-07T09:06:33;9.33;;;7.50;;
5995;SDS011;3026;53.612;7.278;2023-04-07T09:09:00;8.97;;;7.57;;
5995;SDS011;3026;53.612;7.278;2023-04-07T09:11:33;9.37;;;8.20;;
5995;SDS011;3026;53.612;7.278;2023-04-07T09:14:02;7.37;;;6.60;;
5995;SDS011;3026;53.612;7.278;2023-04-07T09:16:29;8.53;;;7.33;;
5995;SDS011;3026;53.612;7.278;2023-04-07T09:18:56;9.67;;;7.83;;
5995;SDS011;3026;53.612;7.278;2023-04-07T09:21:23;8.00;;;6.67;;
5995;SDS011;3026;53.612;7.278;2023-04-07T09:23:51;9.40;;;7.63;;
5995;SDS011;3026;53.612;7.278;2023-04-07T09:26:19;7.43;;;6.67;;
5995;SDS011;3026;53.612;7.278;2023-04-07T09:28:50;10.70;;;7.20;;
5995;SDS011;3026;53.612;7.278;2023-04-07T09:31:20;8.90;;;6.80;;
5995;SDS011;3026;53.612;7.278;2023-04-07T09:33:47;10.67;;;8.23;;
5995;SDS011;3026;53.612;7.278;2023-04-07T09:36:14;7.60;;;6.87;;
5995;SDS011;3026;53.612;7.278;2023-04-07T09:38:42;9.77;;;7.07;;
5995;SDS011;3026;53.612;7.278;2023-04-07T09:41:10;8.60;;;6.77;;
5995;SDS011;3026;53.612;7.278;2023-04-07T09:43:39;8.13;;;6.93;;
5995;SDS011;3026;53.612;7.278;2023-04-07T09:46:09;7.50;;;6.77;;
5995;SDS011;3026;53.612;7.278;2023-04-07T09:48:38;8.67;;;6.87;;
5995;SDS011;3026;53.612;7.278;2023-04-07T09:51:06;7.57;;;6.77;;
5995;SDS011;3026;53.612;7.278;2023-04-07T09:53:41;7.27;;;6.50;;
5995;SDS011;3026;53.612;7.278;2023-04-07T09:56:09;8.50;;;7.10;;
5995;SDS011;3026;53.612;7.278;2023-04-07T09:58:37;7.73;;;6.83;;
5995;SDS011;3026;53.612;7.278;2023-04-07T10:01:05;9.10;;;7.03;;
5995;SDS011;3026;53.612;7.278;2023-04-07T10:03:33;7.90;;;7.10;;
5995;SDS011;3026;53.612;7.278;2023-04-07T10:06:02;8.73;;;7.13;;
5995;SDS011;3026;53.612;7.278;2023-04-07T10:08:31;8.53;;;6.57;;
5995;SDS011;3026;53.612;7.278;2023-04-07T10:11:00;7.87;;;7.17;;
5995;SDS011;3026;53.612;7.278;2023-04-07T10:13:27;8.40;;;7.50;;
5995;SDS011;3026;53.612;7.278;2023-04-07T10:15:54;9.97;;;7.37;;
5995;SDS011;3026;53.612;7.278;2023-04-07T10:18:21;8.17;;;7.37;;
5995;SDS011;3026;53.612;7.278;2023-04-07T10:20:55;8.30;;;7.40;;
5995;SDS011;3026;53.612;7.278;2023-04-07T10:23:26;8.30;;;7.50;;
5995;SDS011;3026;53.612;7.278;2023-04-07T10:26:00;8.47;;;7.10;;
5995;SDS011;3026;53.612;7.278;2023-04-07T10:28:29;8.70;;;7.70;;
5995;SDS011;3026;53.612;7.278;2023-04-07T10:30:58;9.83;;;8.37;;
5995;SDS011;3026;53.612;7.278;2023-04-07T10:36:11;8.77;;;7.87;;
5995;SDS011;3026;53.612;7.278;2023-04-07T10:38:39;10.53;;;7.87;;
5995;SDS011;3026;53.612;7.278;2023-04-07T10:43:59;13.23;;;9.13;;
5995;SDS011;3026;53.612;7.278;2023-04-07T10:49:26;10.17;;;8.93;;
5995;SDS011;3026;53.612;7.278;2023-04-07T10:54:49;12.57;;;8.90;;
5995;SDS011;3026;53.612;7.278;2023-04-07T11:03:59;14.10;;;9.10;;
5995;SDS011;3026;53.612;7.278;2023-04-07T11:06:26;12.47;;;9.30;;
5995;SDS011;3026;53.612;7.278;2023-04-07T11:08:53;10.03;;;8.43;;
5995;SDS011;3026;53.612;7.278;2023-04-07T11:11:35;13.27;;;9.73;;
5995;SDS011;3026;53.612;7.278;2023-04-07T11:14:03;14.53;;;9.60;;
5995;SDS011;3026;53.612;7.278;2023-04-07T11:16:40;12.53;;;8.63;;
5995;SDS011;3026;53.612;7.278;2023-04-07T11:19:09;13.00;;;8.00;;
5995;SDS011;3026;53.612;7.278;2023-04-07T11:21:36;13.47;;;8.67;;
5995;SDS011;3026;53.612;7.278;2023-04-07T11:24:04;12.83;;;8.97;;
5995;SDS011;3026;53.612;7.278;2023-04-07T11:26:37;15.43;;;8.57;;
5995;SDS011;3026;53.612;7.278;2023-04-07T11:29:04;11.27;;;8.50;;
5995;SDS011;3026;53.612;7.278;2023-04-07T11:31:32;9.97;;;8.40;;
5995;SDS011;3026;53.612;7.278;2023-04-07T11:33:59;12.97;;;9.07;;
5995;SDS011;3026;53.612;7.278;2023-04-07T11:36:29;12.57;;;7.90;;
5995;SDS011;3026;53.612;7.278;2023-04-07T11:38:57;11.40;;;7.77;;
5995;SDS011;3026;53.612;7.278;2023-04-07T11:41:26;12.00;;;7.97;;
5995;SDS011;3026;53.612;7.278;2023-04-07T11:44:05;13.70;;;8.20;;
5995;SDS011;3026;53.612;7.278;2023-04-07T11:46:33;11.20;;;8.53;;
5995;SDS011;3026;53.612;7.278;2023-04-07T11:49:07;13.73;;;9.00;;
5995;SDS011;3026;53.612;7.278;2023-04-07T11:51:35;10.37;;;7.97;;
5995;SDS011;3026;53.612;7.278;2023-04-07T11:54:02;13.47;;;8.10;;
5995;SDS011;3026;53.612;7.278;2023-04-07T11:56:29;10.30;;;7.93;;
5995;SDS011;3026;53.612;7.278;2023-04-07T11:59:07;9.93;;;7.77;;
5995;SDS011;3026;53.612;7.278;2023-04-07T12:01:38;11.07;;;8.37;;
5995;SDS011;3026;53.612;7.278;2023-04-07T12:04:05;12.60;;;8.53;;
5995;SDS011;3026;53.612;7.278;2023-04-07T12:06:37;10.00;;;7.73;;
5995;SDS011;3026;53.612;7.278;2023-04-07T12:09:05;14.60;;;7.80;;
5995;SDS011;3026;53.612;7.278;2023-04-07T12:11:33;11.67;;;7.90;;
5995;SDS011;3026;53.612;7.278;2023-04-07T12:14:01;10.83;;;7.70;;
5995;SDS011;3026;53.612;7.278;2023-04-07T12:16:30;12.37;;;8.07;;
5995;SDS011;3026;53.612;7.278;2023-04-07T12:18:58;12.13;;;8.17;;
5995;SDS011;3026;53.612;7.278;2023-04-07T12:21:25;10.57;;;8.27;;
5995;SDS011;3026;53.612;7.278;2023-04-07T12:23:52;11.43;;;8.20;;
5995;SDS011;3026;53.612;7.278;2023-04-07T12:26:19;8.70;;;7.63;;
5995;SDS011;3026;53.612;7.278;2023-04-07T12:28:46;9.93;;;8.03;;
5995;SDS011;3026;53.612;7.278;2023-04-07T12:31:13;11.97;;;8.63;;
5995;SDS011;3026;53.612;7.278;2023-04-07T12:33:41;11.27;;;8.07;;
5995;SDS011;3026;53.612;7.278;2023-04-07T12:36:08;9.13;;;7.30;;
5995;SDS011;3026;53.612;7.278;2023-04-07T12:38:35;10.87;;;6.90;;
5995;SDS011;3026;53.612;7.278;2023-04-07T12:41:02;12.07;;;7.27;;
5995;SDS011;3026;53.612;7.278;2023-04-07T12:43:28;11.87;;;8.87;;
5995;SDS011;3026;53.612;7.278;2023-04-07T12:45:55;9.20;;;7.50;;
5995;SDS011;3026;53.612;7.278;2023-04-07T12:48:23;8.60;;;7.67;;
5995;SDS011;3026;53.612;7.278;2023-04-07T12:50:52;8.57;;;7.30;;
5995;SDS011;3026;53.612;7.278;2023-04-07T12:53:19;11.10;;;7.13;;
5995;SDS011;3026;53.612;7.278;2023-04-07T12:55:46;10.60;;;7.57;;
5995;SDS011;3026;53.612;7.278;2023-04-07T12:58:13;9.33;;;7.40;;
5995;SDS011;3026;53.612;7.278;2023-04-07T13:00:41;9.17;;;7.20;;
5995;SDS011;3026;53.612;7.278;2023-04-07T13:03:08;9.37;;;7.30;;
5995;SDS011;3026;53.612;7.278;2023-04-07T13:05:35;11.20;;;8.17;;
5995;SDS011;3026;53.612;7.278;2023-04-07T13:08:03;14.63;;;7.93;;
5995;SDS011;3026;53.612;7.278;2023-04-07T13:10:32;9.13;;;6.90;;
5995;SDS011;3026;53.612;7.278;2023-04-07T13:12:58;9.63;;;6.97;;
5995;SDS011;3026;53.612;7.278;2023-04-07T13:15:25;10.33;;;7.13;;
5995;SDS011;3026;53.612;7.278;2023-04-07T13:17:52;9.10;;;6.93;;
5995;SDS011;3026;53.612;7.278;2023-04-07T13:20:20;9.13;;;7.10;;
5995;SDS011;3026;53.612;7.278;2023-04-07T13:22:47;10.13;;;7.60;;
5995;SDS011;3026;53.612;7.278;2023-04-07T13:25:16;9.53;;;6.57;;
5995;SDS011;3026;53.612;7.278;2023-04-07T13:27:43;9.30;;;7.30;;
5995;SDS011;3026;53.612;7.278;2023-04-07T13:30:11;10.20;;;7.57;;
5995;SDS011;3026;53.612;7.278;2023-04-07T13:32:38;10.57;;;7.50;;
5995;SDS011;3026;53.612;7.278;2023-04-07T13:35:06;9.60;;;7.03;;
5995;SDS011;3026;53.612;7.278;2023-04-07T13:37:33;10.53;;;7.00;;
5995;SDS011;3026;53.612;7.278;2023-04-07T13:40:00;9.43;;;7.30;;
5995;SDS011;3026;53.612;7.278;2023-04-07T13:42:28;9.27;;;7.17;;
5995;SDS011;3026;53.612;7.278;2023-04-07T13:44:55;9.47;;;6.77;;
5995;SDS011;3026;53.612;7.278;2023-04-07T13:47:21;11.37;;;6.87;;
5995;SDS011;3026;53.612;7.278;2023-04-07T13:49:49;9.07;;;7.67;;
5995;SDS011;3026;53.612;7.278;2023-04-07T13:52:16;7.30;;;6.53;;
5995;SDS011;3026;53.612;7.278;2023-04-07T13:54:43;11.90;;;6.60;;
5995;SDS011;3026;53.612;7.278;2023-04-07T13:57:10;7.67;;;6.20;;
5995;SDS011;3026;53.612;7.278;2023-04-07T13:59:40;8.50;;;6.50;;
5995;SDS011;3026;53.612;7.278;2023-04-07T14:02:06;7.37;;;6.37;;
5995;SDS011;3026;53.612;7.278;2023-04-07T14:04:33;7.17;;;6.47;;
5995;SDS011;3026;53.612;7.278;2023-04-07T14:07:00;8.47;;;6.30;;
5995;SDS011;3026;53.612;7.278;2023-04-07T14:09:27;8.27;;;6.20;;
5995;SDS011;3026;53.612;7.278;2023-04-07T14:11:54;7.60;;;5.90;;
5995;SDS011;3026;53.612;7.278;2023-04-07T14:14:21;8.60;;;6.50;;
5995;SDS011;3026;53.612;7.278;2023-04-07T14:16:49;7.63;;;6.37;;
5995;SDS011;3026;53.612;7.278;2023-04-07T14:19:17;8.53;;;6.13;;
5995;SDS011;3026;53.612;7.278;2023-04-07T14:21:46;8.13;;;6.00;;
5995;SDS011;3026;53.612;7.278;2023-04-07T14:24:13;10.33;;;6.60;;
5995;SDS011;3026;53.612;7.278;2023-04-07T14:26:41;8.33;;;6.27;;
5995;SDS011;3026;53.612;7.278;2023-04-07T14:29:09;8.87;;;6.00;;
5995;SDS011;3026;53.612;7.278;2023-04-07T14:31:36;8.70;;;5.77;;
5995;SDS011;3026;53.612;7.278;2023-04-07T14:34:04;7.67;;;6.03;;
5995;SDS011;3026;53.612;7.278;2023-04-07T14:36:32;7.80;;;5.50;;
5995;SDS011;3026;53.612;7.278;2023-04-07T14:38:59;15.17;;;5.70;;
5995;SDS011;3026;53.612;7.278;2023-04-07T14:41:26;8.10;;;6.20;;
5995;SDS011;3026;53.612;7.278;2023-04-07T14:43:53;8.53;;;6.20;;
5995;SDS011;3026;53.612;7.278;2023-04-07T14:46:20;6.87;;;4.90;;
5995;SDS011;3026;53.612;7.278;2023-04-07T14:48:48;11.90;;;5.57;;
5995;SDS011;3026;53.612;7.278;2023-04-07T14:51:18;8.10;;;5.70;;
5995;SDS011;3026;53.612;7.278;2023-04-07T14:53:45;6.23;;;5.30;;
5995;SDS011;3026;53.612;7.278;2023-04-07T14:56:17;9.60;;;5.47;;
5995;SDS011;3026;53.612;7.278;2023-04-07T14:58:45;8.53;;;5.53;;
5995;SDS011;3026;53.612;7.278;2023-04-07T15:01:12;7.10;;;5.77;;
5995;SDS011;3026;53.612;7.278;2023-04-07T15:03:39;7.13;;;5.33;;
5995;SDS011;3026;53.612;7.278;2023-04-07T15:06:06;8.10;;;5.50;;
5995;SDS011;3026;53.612;7.278;2023-04-07T15:08:35;6.57;;;5.97;;
5995;SDS011;3026;53.612;7.278;2023-04-07T15:11:03;5.40;;;4.90;;
5995;SDS011;3026;53.612;7.278;2023-04-07T15:13:30;6.73;;;5.13;;
5995;SDS011;3026;53.612;7.278;2023-04-07T15:16:04;7.20;;;5.03;;
5995;SDS011;3026;53.612;7.278;2023-04-07T15:18:32;7.30;;;5.50;;
5995;SDS011;3026;53.612;7.278;2023-04-07T15:20:58;7.37;;;5.17;;